Time;durP1;ratioP1;P1;durP2;ratioP2;P2;SDS_P1;SDS_P2;PMS_P1;PMS_P2;Temp;Humidity;BMP_temperature;BMP_pressure;BME280_temperature;BME280_humidity;BME280_pressure;Samples;Min_cycle;Max_cycle;Signal;HPM_P1;HPM_P2
2021/01/10 00:01:24;;;;;;;43.63;22.30;;;;;;;;;;5003590;28;20019;-91
2021/01/10 00:03:49;;;;;;;44.07;21.63;;;;;;;;;;4987656;28;20116;-90
2021/01/10 00:06:14;;;;;;;40.73;21.07;;;;;;;;;;5006905;28;20084;-91
2021/01/10 00:08:40;;;;;;;38.90;20.67;;;;;;;;;;5007308;28;20095;-91
2021/01/10 00:11:05;;;;;;;45.17;22.33;;;;;;;;;;4991011;28;20019;-91
2021/01/10 00:13:31;;;;;;;46.50;22.97;;;;;;;;;;5006546;28;20038;-91
2021/01/10 00:15:56;;;;;;;50.20;22.87;;;;;;;;;;5004404;28;20133;-91
2021/01/10 00:18:21;;;;;;;52.13;24.93;;;;;;;;;;5006950;28;20030;-91
2021/01/10 00:20:46;;;;;;;47.43;24.27;;;;;;;;;;5007090;28;20369;-91
2021/01/10 00:23:11;;;;;;;40.07;21.93;;;;;;;;;;4990400;28;20042;-91
2021/01/10 00:25:37;;;;;;;42.60;22.67;;;;;;;;;;4995724;28;20069;-91
2021/01/10 00:28:02;;;;;;;44.07;22.10;;;;;;;;;;4984790;28;20500;-91
2021/01/10 00:30:27;;;;;;;44.03;22.90;;;;;;;;;;5006174;28;20026;-91
2021/01/10 00:32:53;;;;;;;43.17;22.67;;;;;;;;;;4989237;28;20053;-91
2021/01/10 00:35:19;;;;;;;39.73;21.80;;;;;;;;;;4989924;28;20025;-91
2021/01/10 00:37:48;;;;;;;46.20;23.83;;;;;;;;;;4990611;28;20105;-91
2021/01/10 00:40:13;;;;;;;43.90;22.30;;;;;;;;;;4995969;28;20069;-91
2021/01/10 00:42:40;;;;;;;44.77;23.10;;;;;;;;;;5001075;28;20026;-91
2021/01/10 00:45:05;;;;;;;42.33;23.23;;;;;;;;;;4993334;28;20551;-91
2021/01/10 00:47:30;;;;;;;51.07;23.33;;;;;;;;;;5016939;28;20030;-91
2021/01/10 00:49:56;;;;;;;41.47;22.60;;;;;;;;;;5004489;28;20022;-91
2021/01/10 00:52:21;;;;;;;42.03;22.53;;;;;;;;;;5013688;28;20033;-91
2021/01/10 00:54:49;;;;;;;43.67;22.77;;;;;;;;;;4997898;28;20070;-92
2021/01/10 00:57:14;;;;;;;50.97;24.17;;;;;;;;;;5006228;28;20114;-91
2021/01/10 00:59:39;;;;;;;45.10;23.17;;;;;;;;;;5000881;28;20113;-90
2021/01/10 01:02:05;;;;;;;48.20;23.50;;;;;;;;;;5008139;28;20021;-92
2021/01/10 01:04:30;;;;;;;44.97;23.67;;;;;;;;;;4989714;28;20045;-91
2021/01/10 01:06:55;;;;;;;43.37;22.87;;;;;;;;;;5004485;28;20022;-91
2021/01/10 01:09:20;;;;;;;39.30;22.43;;;;;;;;;;5004239;28;20026;-91
2021/01/10 01:11:46;;;;;;;52.53;25.20;;;;;;;;;;4982917;28;20444;-92
2021/01/10 01:14:11;;;;;;;47.30;23.47;;;;;;;;;;4987074;28;20125;-92
2021/01/10 01:16:37;;;;;;;43.63;22.90;;;;;;;;;;5017581;28;20053;-81
2021/01/10 01:19:03;;;;;;;42.47;22.83;;;;;;;;;;4989457;28;20023;-81
2021/01/10 01:21:28;;;;;;;42.10;22.67;;;;;;;;;;4988089;28;20073;-81
2021/01/10 01:23:53;;;;;;;48.23;23.07;;;;;;;;;;5004724;28;20476;-81
2021/01/10 01:26:19;;;;;;;44.97;22.70;;;;;;;;;;4988034;28;20081;-81
2021/01/10 01:28:45;;;;;;;45.10;23.30;;;;;;;;;;4988382;28;20033;-81
2021/01/10 01:31:11;;;;;;;43.47;22.87;;;;;;;;;;4988277;28;20453;-81
2021/01/10 01:33:36;;;;;;;44.30;23.73;;;;;;;;;;4988394;28;20023;-82
2021/01/10 01:36:02;;;;;;;46.57;22.73;;;;;;;;;;4987439;28;20026;-81
2021/01/10 01:38:27;;;;;;;43.60;23.27;;;;;;;;;;4987933;28;20142;-81
2021/01/10 01:41:02;;;;;;;45.63;22.67;;;;;;;;;;4990300;28;20022;-81
2021/01/10 01:43:27;;;;;;;46.80;24.40;;;;;;;;;;4991243;28;20045;-82
2021/01/10 01:45:52;;;;;;;48.73;24.03;;;;;;;;;;4993171;28;20543;-81
2021/01/10 01:48:17;;;;;;;51.00;25.47;;;;;;;;;;4991304;28;20031;-81
2021/01/10 01:50:43;;;;;;;45.53;24.47;;;;;;;;;;4991370;28;20109;-81
2021/01/10 01:53:08;;;;;;;45.57;25.07;;;;;;;;;;4991891;28;20065;-81
2021/01/10 01:55:36;;;;;;;46.87;25.07;;;;;;;;;;4990362;28;20014;-81
2021/01/10 01:58:02;;;;;;;45.53;23.83;;;;;;;;;;4991741;28;20034;-82
2021/01/10 02:00:27;;;;;;;51.90;24.87;;;;;;;;;;4991820;28;20029;-81
2021/01/10 02:02:52;;;;;;;48.70;24.20;;;;;;;;;;4991039;28;20038;-81
2021/01/10 02:05:18;;;;;;;46.13;23.40;;;;;;;;;;5007012;28;20076;-81
2021/01/10 02:07:55;;;;;;;48.70;23.97;;;;;;;;;;4991986;28;20114;-81
2021/01/10 02:10:40;;;;;;;47.70;23.73;;;;;;;;;;4991577;28;20033;-81
2021/01/10 02:13:08;;;;;;;48.57;24.80;;;;;;;;;;4990562;28;20030;-81
2021/01/10 02:15:35;;;;;;;43.53;24.10;;;;;;;;;;4992651;28;20402;-81
2021/01/10 02:18:00;;;;;;;48.60;24.50;;;;;;;;;;4990516;28;20030;-81
2021/01/10 02:20:27;;;;;;;50.17;24.93;;;;;;;;;;4992587;28;20084;-81
2021/01/10 02:22:55;;;;;;;51.20;25.50;;;;;;;;;;4990771;28;20049;-82
2021/01/10 02:25:21;;;;;;;49.33;23.67;;;;;;;;;;5006820;28;20389;-81
2021/01/10 02:27:47;;;;;;;45.87;24.30;;;;;;;;;;5007896;28;20030;-81
2021/01/10 02:30:13;;;;;;;42.10;22.07;;;;;;;;;;5007766;28;20030;-82
2021/01/10 02:32:41;;;;;;;44.47;23.40;;;;;;;;;;4990985;28;20084;-81
2021/01/10 02:35:07;;;;;;;48.57;24.27;;;;;;;;;;4989146;28;20033;-81
2021/01/10 02:37:51;;;;;;;53.57;25.03;;;;;;;;;;4990943;28;20363;-82
2021/01/10 02:40:36;;;;;;;48.07;25.63;;;;;;;;;;5007226;28;20010;-81
2021/01/10 02:43:05;;;;;;;48.13;24.63;;;;;;;;;;4990963;28;20319;-81
2021/01/10 02:45:30;;;;;;;47.47;24.90;;;;;;;;;;5006450;28;20660;-81
2021/01/10 02:47:56;;;;;;;49.30;25.57;;;;;;;;;;4989635;28;20113;-82
2021/01/10 02:50:21;;;;;;;50.37;25.23;;;;;;;;;;4991479;28;20126;-81
2021/01/10 02:52:47;;;;;;;50.70;24.97;;;;;;;;;;4991188;28;20096;-81
2021/01/10 02:55:12;;;;;;;50.87;25.70;;;;;;;;;;4981797;28;20022;-81
2021/01/10 02:57:37;;;;;;;53.23;27.20;;;;;;;;;;5007164;28;20030;-81
2021/01/10 03:00:10;;;;;;;55.83;28.07;;;;;;;;;;5006474;28;20330;-81
2021/01/10 03:02:36;;;;;;;55.90;28.33;;;;;;;;;;4997427;28;20018;-81
2021/01/10 03:05:05;;;;;;;51.07;25.37;;;;;;;;;;4991093;28;20049;-81
2021/01/10 03:07:31;;;;;;;46.83;24.87;;;;;;;;;;5007149;28;20120;-80
2021/01/10 03:09:57;;;;;;;51.37;25.93;;;;;;;;;;5007102;28;20109;-81
2021/01/10 03:12:26;;;;;;;53.07;25.93;;;;;;;;;;5006178;28;20541;-81
2021/01/10 03:14:55;;;;;;;51.40;25.60;;;;;;;;;;5005854;28;20025;-81
2021/01/10 03:17:26;;;;;;;48.40;25.17;;;;;;;;;;5006833;28;20026;-81
2021/01/10 03:19:52;;;;;;;53.60;26.40;;;;;;;;;;5005916;28;20022;-81
2021/01/10 03:22:17;;;;;;;54.30;26.87;;;;;;;;;;5006739;28;20029;-81
2021/01/10 03:24:42;;;;;;;51.67;25.33;;;;;;;;;;5006556;28;20018;-80
2021/01/10 03:27:10;;;;;;;52.17;25.47;;;;;;;;;;5007095;28;20027;-81
2021/01/10 03:29:36;;;;;;;51.37;25.53;;;;;;;;;;5006446;28;20018;-87
2021/01/10 03:32:01;;;;;;;52.17;25.93;;;;;;;;;;4989798;28;20029;-88
2021/01/10 03:34:26;;;;;;;47.53;24.40;;;;;;;;;;5006111;28;20080;-88
2021/01/10 03:36:52;;;;;;;48.20;24.43;;;;;;;;;;5005602;28;20023;-87
2021/01/10 03:39:17;;;;;;;51.77;26.20;;;;;;;;;;5006850;28;20026;-81
2021/01/10 03:41:42;;;;;;;55.43;25.57;;;;;;;;;;5006152;28;20029;-81
2021/01/10 03:44:07;;;;;;;49.03;24.93;;;;;;;;;;5006616;28;20113;-81
2021/01/10 03:46:32;;;;;;;48.37;24.10;;;;;;;;;;5004817;28;20029;-81
2021/01/10 03:48:58;;;;;;;45.63;23.30;;;;;;;;;;4988805;28;20030;-81
2021/01/10 03:51:29;;;;;;;49.07;24.13;;;;;;;;;;5005802;28;20030;-81
2021/01/10 03:53:54;;;;;;;48.10;24.00;;;;;;;;;;4989854;28;20049;-81
2021/01/10 03:56:19;;;;;;;54.50;26.47;;;;;;;;;;5005634;28;20022;-81
2021/01/10 03:58:45;;;;;;;55.63;24.47;;;;;;;;;;5005807;28;20023;-82
2021/01/10 04:01:10;;;;;;;48.90;23.47;;;;;;;;;;5006165;28;20022;-81
2021/01/10 04:03:35;;;;;;;48.50;24.50;;;;;;;;;;5005318;28;20022;-81
2021/01/10 04:06:00;;;;;;;49.97;23.90;;;;;;;;;;5004429;28;20049;-81
2021/01/10 04:08:25;;;;;;;44.30;24.10;;;;;;;;;;5005750;28;20037;-81
2021/01/10 04:10:51;;;;;;;46.60;23.53;;;;;;;;;;5005800;28;20474;-81
2021/01/10 04:13:16;;;;;;;48.13;24.20;;;;;;;;;;4990811;28;20019;-81
2021/01/10 04:15:41;;;;;;;47.40;23.97;;;;;;;;;;5005008;28;20081;-81
2021/01/10 04:18:06;;;;;;;46.20;23.17;;;;;;;;;;5004913;28;20026;-81
2021/01/10 04:20:31;;;;;;;44.70;23.10;;;;;;;;;;5004815;28;20117;-81
2021/01/10 04:22:56;;;;;;;43.40;22.23;;;;;;;;;;5004955;28;20026;-81
2021/01/10 04:25:22;;;;;;;43.30;22.07;;;;;;;;;;5004769;28;20077;-81
2021/01/10 04:27:47;;;;;;;55.60;24.40;;;;;;;;;;5004996;28;20034;-81
2021/01/10 04:30:12;;;;;;;41.37;22.33;;;;;;;;;;5004697;28;20046;-82
2021/01/10 04:32:37;;;;;;;51.03;24.43;;;;;;;;;;5005100;28;20026;-81
2021/01/10 04:35:03;;;;;;;47.47;23.87;;;;;;;;;;5004508;28;20477;-81
2021/01/10 04:37:28;;;;;;;49.03;23.70;;;;;;;;;;5005269;28;20019;-81
2021/01/10 04:39:53;;;;;;;46.30;22.30;;;;;;;;;;5004678;28;20533;-81
2021/01/10 04:42:19;;;;;;;47.03;24.30;;;;;;;;;;5005207;28;20066;-81
2021/01/10 04:44:44;;;;;;;47.57;23.33;;;;;;;;;;5004040;28;20022;-81
2021/01/10 04:47:09;;;;;;;44.87;23.73;;;;;;;;;;5005296;28;20029;-81
2021/01/10 04:49:36;;;;;;;46.47;24.37;;;;;;;;;;5005032;28;20378;-81
2021/01/10 04:52:01;;;;;;;46.37;23.33;;;;;;;;;;5004855;28;20022;-81
2021/01/10 04:54:28;;;;;;;48.87;25.00;;;;;;;;;;5005051;28;20024;-81
2021/01/10 04:56:55;;;;;;;51.63;24.73;;;;;;;;;;5004765;28;20019;-81
2021/01/10 04:59:21;;;;;;;52.47;25.67;;;;;;;;;;5004884;28;20028;-82
2021/01/10 05:01:50;;;;;;;49.97;24.40;;;;;;;;;;5004865;28;20105;-81
2021/01/10 05:04:19;;;;;;;46.30;23.83;;;;;;;;;;4989669;28;20084;-81
2021/01/10 05:06:45;;;;;;;51.83;24.60;;;;;;;;;;5004225;28;20062;-81
2021/01/10 05:09:10;;;;;;;52.23;24.90;;;;;;;;;;5005215;28;20048;-81
2021/01/10 05:11:35;;;;;;;50.67;25.03;;;;;;;;;;5004833;28;20018;-81
2021/01/10 05:14:01;;;;;;;48.73;24.70;;;;;;;;;;5004464;28;20092;-81
2021/01/10 05:16:31;;;;;;;47.20;24.13;;;;;;;;;;5004770;28;20101;-81
2021/01/10 05:18:56;;;;;;;42.23;22.00;;;;;;;;;;5011031;28;20122;-81
2021/01/10 05:21:22;;;;;;;47.80;22.10;;;;;;;;;;5010540;28;20101;-81
2021/01/10 05:23:50;;;;;;;41.67;22.20;;;;;;;;;;5011129;28;20023;-81
2021/01/10 05:26:17;;;;;;;45.43;23.40;;;;;;;;;;5010681;28;20065;-81
2021/01/10 05:28:43;;;;;;;48.97;23.30;;;;;;;;;;4996365;28;20022;-81
2021/01/10 05:31:09;;;;;;;43.30;22.83;;;;;;;;;;5010744;28;20591;-81
2021/01/10 05:33:50;;;;;;;50.70;23.37;;;;;;;;;;4995627;28;20018;-81
2021/01/10 05:36:26;;;;;;;49.33;22.93;;;;;;;;;;4993638;28;20050;-81
2021/01/10 05:38:52;;;;;;;46.47;22.77;;;;;;;;;;4995751;28;20025;-81
2021/01/10 05:41:17;;;;;;;42.57;22.33;;;;;;;;;;5010790;28;20424;-81
2021/01/10 05:43:59;;;;;;;43.13;21.83;;;;;;;;;;5010674;28;20094;-81
2021/01/10 05:46:25;;;;;;;43.60;23.17;;;;;;;;;;4995359;28;20026;-81
2021/01/10 05:48:50;;;;;;;40.13;21.83;;;;;;;;;;5010834;28;20045;-81
2021/01/10 05:51:17;;;;;;;44.37;22.07;;;;;;;;;;5010758;28;20116;-82
2021/01/10 05:53:42;;;;;;;44.40;22.90;;;;;;;;;;5010991;28;20536;-81
2021/01/10 05:56:07;;;;;;;43.03;22.07;;;;;;;;;;5010981;28;20101;-81
2021/01/10 05:58:32;;;;;;;43.83;21.77;;;;;;;;;;5010746;28;20018;-81
2021/01/10 06:00:58;;;;;;;43.30;21.10;;;;;;;;;;5011135;28;20109;-81
2021/01/10 06:03:24;;;;;;;44.57;20.87;;;;;;;;;;5010567;28;20118;-82
2021/01/10 06:05:56;;;;;;;47.43;22.30;;;;;;;;;;5009771;28;20025;-81
2021/01/10 06:08:26;;;;;;;43.83;22.93;;;;;;;;;;4994653;28;20102;-81
2021/01/10 06:10:51;;;;;;;44.07;22.50;;;;;;;;;;5010904;28;20118;-81
2021/01/10 06:13:18;;;;;;;46.73;22.37;;;;;;;;;;5011158;28;20532;-81
2021/01/10 06:15:46;;;;;;;40.17;21.47;;;;;;;;;;5010514;28;20069;-81
2021/01/10 06:18:14;;;;;;;43.07;21.37;;;;;;;;;;4995250;28;20026;-81
2021/01/10 06:20:41;;;;;;;45.47;21.97;;;;;;;;;;4995615;28;20018;-81
2021/01/10 06:23:06;;;;;;;42.40;22.27;;;;;;;;;;4996058;28;20366;-81
2021/01/10 06:25:32;;;;;;;41.70;21.93;;;;;;;;;;5010411;28;20018;-81
2021/01/10 06:28:00;;;;;;;38.87;20.73;;;;;;;;;;4995450;28;20105;-81
2021/01/10 06:30:28;;;;;;;40.70;21.73;;;;;;;;;;5006665;28;20026;-81
2021/01/10 06:32:58;;;;;;;39.20;21.37;;;;;;;;;;5006727;28;20076;-82
2021/01/10 06:35:23;;;;;;;41.47;19.87;;;;;;;;;;5006554;28;20098;-81
2021/01/10 06:37:51;;;;;;;40.70;19.80;;;;;;;;;;5007042;28;20027;-81
2021/01/10 06:40:18;;;;;;;39.40;20.50;;;;;;;;;;5007197;28;20113;-81
2021/01/10 06:42:44;;;;;;;40.57;21.27;;;;;;;;;;5007929;28;20088;-81
2021/01/10 06:45:09;;;;;;;40.07;21.07;;;;;;;;;;5007327;28;20034;-81
2021/01/10 06:47:35;;;;;;;40.93;21.40;;;;;;;;;;5007209;28;20019;-82
2021/01/10 06:50:00;;;;;;;45.00;20.53;;;;;;;;;;4991569;28;20099;-81
2021/01/10 06:52:27;;;;;;;46.53;22.53;;;;;;;;;;5007296;28;20412;-81
2021/01/10 06:54:52;;;;;;;40.63;20.10;;;;;;;;;;4991906;28;20133;-81
2021/01/10 06:57:17;;;;;;;39.73;20.07;;;;;;;;;;5007620;28;20529;-81
2021/01/10 06:59:59;;;;;;;39.67;20.30;;;;;;;;;;5007376;28;20103;-81
2021/01/10 07:02:25;;;;;;;128.52;52.10;;;;;;;;;;5006202;28;20027;-81
2021/01/10 07:04:54;;;;;;;70.03;30.27;;;;;;;;;;4990246;28;20034;-81
2021/01/10 07:07:38;;;;;;;49.53;23.93;;;;;;;;;;4991919;28;20044;-81
2021/01/10 07:10:04;;;;;;;38.97;21.33;;;;;;;;;;5006889;28;20033;-81
2021/01/10 07:12:29;;;;;;;43.40;20.17;;;;;;;;;;5006640;28;20602;-82
2021/01/10 07:15:15;;;;;;;42.10;21.20;;;;;;;;;;5006722;28;20630;-81
2021/01/10 07:17:40;;;;;;;43.80;20.97;;;;;;;;;;5006397;28;20088;-81
2021/01/10 07:20:05;;;;;;;43.27;22.47;;;;;;;;;;5006160;28;20030;-81
2021/01/10 07:22:31;;;;;;;46.43;23.20;;;;;;;;;;5006609;28;20098;-81
2021/01/10 07:24:57;;;;;;;45.87;24.10;;;;;;;;;;5005990;28;20442;-82
2021/01/10 07:27:29;;;;;;;37.63;20.67;;;;;;;;;;5007031;28;20045;-81
2021/01/10 07:29:54;;;;;;;45.03;20.58;;;;;;;;;;5002313;28;20518;-81
2021/01/10 07:32:32;;;;;;;39.60;21.20;;;;;;;;;;4982548;28;20139;-81
2021/01/10 07:34:58;;;;;;;43.47;21.67;;;;;;;;;;4996520;28;20026;-81
2021/01/10 07:37:24;;;;;;;39.47;19.93;;;;;;;;;;5004850;28;20030;-81
2021/01/10 07:39:52;;;;;;;42.90;20.17;;;;;;;;;;4989024;28;20026;-81
2021/01/10 07:42:18;;;;;;;37.13;20.37;;;;;;;;;;4991599;28;20030;-81
2021/01/10 07:44:54;;;;;;;40.60;22.07;;;;;;;;;;4991271;28;20033;-81
2021/01/10 07:47:31;;;;;;;50.23;25.77;;;;;;;;;;5005590;28;20030;-81
2021/01/10 07:49:58;;;;;;;50.27;25.63;;;;;;;;;;5004496;28;20556;-82
2021/01/10 07:52:38;;;;;;;51.77;23.70;;;;;;;;;;5005606;28;20499;-81
2021/01/10 07:55:04;;;;;;;42.23;22.13;;;;;;;;;;4988754;28;20374;-81
2021/01/10 07:57:31;;;;;;;43.57;21.53;;;;;;;;;;4992479;28;20118;-81
2021/01/10 08:00:07;;;;;;;42.63;22.33;;;;;;;;;;4990559;28;20033;-81
2021/01/10 08:02:45;;;;;;;41.37;21.50;;;;;;;;;;4988974;28;20071;-81
2021/01/10 08:05:12;;;;;;;42.13;20.83;;;;;;;;;;4990217;28;20026;-81
2021/01/10 08:07:44;;;;;;;43.27;22.03;;;;;;;;;;4990469;28;20133;-81
2021/01/10 08:10:09;;;;;;;43.92;21.92;;;;;;;;;;4990109;28;20112;-82
2021/01/10 08:12:36;;;;;;;42.83;21.63;;;;;;;;;;4992184;28;20082;-83
2021/01/10 08:15:03;;;;;;;35.47;19.60;;;;;;;;;;5005515;28;20517;-82
2021/01/10 08:17:28;;;;;;;44.10;21.13;;;;;;;;;;4991030;28;20032;-82
2021/01/10 08:19:53;;;;;;;38.67;21.33;;;;;;;;;;4989838;28;20014;-93
2021/01/10 08:22:18;;;;;;;46.67;24.83;;;;;;;;;;4992574;28;20027;-93
2021/01/10 08:24:44;;;;;;;44.30;21.67;;;;;;;;;;4992297;28;20458;-93
2021/01/10 08:27:09;;;;;;;41.27;21.63;;;;;;;;;;5010386;28;20041;-93
2021/01/10 08:29:34;;;;;;;45.73;23.20;;;;;;;;;;4995030;28;20151;-93
2021/01/10 08:31:59;;;;;;;45.93;23.53;;;;;;;;;;5008539;28;20042;-93
2021/01/10 08:34:25;;;;;;;40.83;21.33;;;;;;;;;;5008805;28;20420;-93
2021/01/10 08:36:50;;;;;;;44.23;22.23;;;;;;;;;;5008901;28;20114;-93
2021/01/10 08:39:16;;;;;;;44.63;23.47;;;;;;;;;;4997449;28;20023;-94
2021/01/10 08:41:46;;;;;;;44.13;22.20;;;;;;;;;;4992905;28;20485;-93
2021/01/10 08:44:16;;;;;;;42.47;22.93;;;;;;;;;;5009882;28;20116;-92
2021/01/10 08:46:43;;;;;;;34.53;19.43;;;;;;;;;;4988985;28;20025;-93
2021/01/10 08:49:08;;;;;;;36.73;20.27;;;;;;;;;;4994508;28;20101;-93
2021/01/10 08:51:34;;;;;;;38.87;20.40;;;;;;;;;;4994106;28;20539;-94
2021/01/10 08:54:01;;;;;;;42.60;20.57;;;;;;;;;;5001858;28;20041;-93
2021/01/10 08:56:26;;;;;;;40.67;20.93;;;;;;;;;;5007220;28;20015;-93
2021/01/10 08:58:55;;;;;;;38.77;20.70;;;;;;;;;;5006867;28;20022;-92
2021/01/10 09:01:21;;;;;;;37.70;20.30;;;;;;;;;;4990019;28;20101;-93
2021/01/10 09:04:01;;;;;;;38.10;20.27;;;;;;;;;;5007017;28;20082;-93
2021/01/10 09:06:45;;;;;;;43.77;21.90;;;;;;;;;;4984076;28;20018;-92
2021/01/10 09:09:19;;;;;;;43.37;21.40;;;;;;;;;;4977057;28;20118;-91
2021/01/10 09:11:46;;;;;;;39.67;21.07;;;;;;;;;;5002174;28;20072;-91
2021/01/10 09:14:13;;;;;;;42.33;22.07;;;;;;;;;;4993655;28;20018;-92
2021/01/10 09:16:39;;;;;;;44.33;22.43;;;;;;;;;;5007780;28;20010;-91
2021/01/10 09:19:06;;;;;;;42.77;22.87;;;;;;;;;;4992095;28;20374;-91
2021/01/10 09:21:32;;;;;;;44.63;23.53;;;;;;;;;;5007787;28;20025;-90
2021/01/10 09:23:58;;;;;;;41.87;23.50;;;;;;;;;;5007849;28;20381;-90
2021/01/10 09:26:28;;;;;;;42.53;22.43;;;;;;;;;;5001306;28;20018;-91
2021/01/10 09:28:53;;;;;;;42.00;22.10;;;;;;;;;;5004781;28;20030;-91
2021/01/10 09:31:18;;;;;;;45.57;23.50;;;;;;;;;;5006028;28;20083;-92
2021/01/10 09:33:44;;;;;;;44.87;23.13;;;;;;;;;;4990327;28;20466;-90
2021/01/10 09:36:15;;;;;;;50.00;24.83;;;;;;;;;;4991402;28;20022;-91
2021/01/10 09:38:52;;;;;;;49.08;24.73;;;;;;;;;;5004193;28;20022;-92
2021/01/10 09:41:18;;;;;;;52.73;25.70;;;;;;;;;;4990087;28;20029;-91
2021/01/10 09:43:53;;;;;;;46.40;24.60;;;;;;;;;;4987044;28;20026;-90
2021/01/10 09:46:22;;;;;;;44.03;23.23;;;;;;;;;;4991462;28;20034;-90
2021/01/10 09:48:51;;;;;;;46.77;23.23;;;;;;;;;;5007979;28;20035;-90
2021/01/10 09:51:16;;;;;;;47.67;24.03;;;;;;;;;;5008017;28;20090;-91
2021/01/10 09:53:46;;;;;;;50.13;25.97;;;;;;;;;;5010051;28;20026;-91
2021/01/10 09:56:12;;;;;;;48.40;24.73;;;;;;;;;;5007797;28;20397;-91
2021/01/10 09:58:37;;;;;;;43.13;24.00;;;;;;;;;;4997165;28;20096;-91
2021/01/10 10:01:08;;;;;;;47.00;25.37;;;;;;;;;;5008031;28;20026;-92
2021/01/10 10:03:33;;;;;;;46.43;23.77;;;;;;;;;;5007791;28;20488;-92
2021/01/10 10:05:59;;;;;;;48.73;24.40;;;;;;;;;;4995960;28;20042;-92
2021/01/10 10:08:24;;;;;;;47.17;23.33;;;;;;;;;;5013970;28;20022;-92
2021/01/10 10:10:50;;;;;;;44.77;22.93;;;;;;;;;;5014374;28;20460;-91
2021/01/10 10:13:22;;;;;;;44.30;22.60;;;;;;;;;;5022212;28;20156;-92
2021/01/10 10:15:54;;;;;;;;;;;;;;;;;;5011411;28;20054;-91
2021/01/10 10:18:21;;;;;;;42.13;23.97;;;;;;;;;;5015373;28;19914;-91
2021/01/10 10:20:47;;;;;;;46.33;23.20;;;;;;;;;;5011503;28;20133;-91
2021/01/10 10:23:13;;;;;;;44.33;23.17;;;;;;;;;;4994765;28;20034;-93
2021/01/10 10:25:38;;;;;;;48.17;23.33;;;;;;;;;;4994714;28;20019;-92
2021/01/10 10:28:05;;;;;;;48.00;22.43;;;;;;;;;;5011164;28;20029;-92
2021/01/10 10:30:30;;;;;;;42.90;22.80;;;;;;;;;;5010973;28;20023;-93
2021/01/10 10:32:55;;;;;;;41.50;21.80;;;;;;;;;;5015090;28;20080;-93
2021/01/10 10:35:21;;;;;;;42.60;21.57;;;;;;;;;;5012424;28;20022;-92
2021/01/10 10:37:47;;;;;;;43.97;21.87;;;;;;;;;;5010576;28;20019;-93
2021/01/10 10:40:13;;;;;;;40.30;21.53;;;;;;;;;;5010825;28;20160;-92
2021/01/10 10:42:38;;;;;;;40.87;22.37;;;;;;;;;;5024059;28;20140;-93
2021/01/10 10:45:04;;;;;;;49.60;25.37;;;;;;;;;;5011770;28;20057;-93
2021/01/10 10:47:29;;;;;;;51.37;24.43;;;;;;;;;;5015716;28;20018;-94
2021/01/10 10:49:54;;;;;;;53.43;26.13;;;;;;;;;;5010637;28;20026;-95
2021/01/10 10:52:19;;;;;;;59.47;25.87;;;;;;;;;;5010851;28;20018;-94
2021/01/10 10:54:45;;;;;;;49.60;25.47;;;;;;;;;;4996299;28;20050;-94
2021/01/10 10:57:11;;;;;;;52.43;25.77;;;;;;;;;;5008807;28;20014;-95
2021/01/10 10:59:36;;;;;;;50.83;24.93;;;;;;;;;;5010921;28;20533;-94
2021/01/10 11:02:03;;;;;;;49.40;24.63;;;;;;;;;;5028553;28;20050;-94
2021/01/10 11:04:28;;;;;;;52.23;25.00;;;;;;;;;;5010540;28;20030;-94
2021/01/10 11:06:53;;;;;;;47.53;24.23;;;;;;;;;;5010722;28;20457;-94
2021/01/10 11:09:18;;;;;;;40.93;23.13;;;;;;;;;;5024192;28;20118;-95
2021/01/10 11:11:45;;;;;;;48.93;23.57;;;;;;;;;;5010729;28;20034;-94
2021/01/10 11:14:11;;;;;;;44.80;23.37;;;;;;;;;;5009190;28;20026;-94
2021/01/10 11:16:37;;;;;;;45.73;23.97;;;;;;;;;;5011929;28;20553;-93
2021/01/10 11:19:03;;;;;;;51.37;25.50;;;;;;;;;;5001065;28;20019;-91
2021/01/10 11:21:30;;;;;;;38.53;21.23;;;;;;;;;;5001163;28;20031;-90
2021/01/10 11:23:55;;;;;;;39.17;20.53;;;;;;;;;;4984933;28;20121;-90
2021/01/10 11:26:20;;;;;;;45.57;22.30;;;;;;;;;;5007194;28;20116;-89
2021/01/10 11:28:46;;;;;;;36.50;21.73;;;;;;;;;;5007804;28;20121;-88
2021/01/10 11:31:11;;;;;;;41.37;21.73;;;;;;;;;;4994589;28;20445;-91
2021/01/10 11:33:36;;;;;;;40.00;21.40;;;;;;;;;;5008272;28;20026;-90
2021/01/10 11:36:01;;;;;;;39.53;21.37;;;;;;;;;;4990575;28;20026;-91
2021/01/10 11:38:26;;;;;;;40.53;21.47;;;;;;;;;;5007377;28;20014;-86
2021/01/10 11:40:52;;;;;;;42.97;22.77;;;;;;;;;;4994622;28;20050;-87
2021/01/10 11:43:17;;;;;;;50.33;24.87;;;;;;;;;;5004972;28;20022;-86
2021/01/10 11:45:42;;;;;;;52.03;27.20;;;;;;;;;;5003735;28;20018;-87
2021/01/10 11:48:07;;;;;;;41.07;22.10;;;;;;;;;;4989707;28;20843;-88
2021/01/10 11:50:33;;;;;;;40.93;22.17;;;;;;;;;;4991870;28;20093;-89
2021/01/10 11:52:58;;;;;;;38.93;20.83;;;;;;;;;;5005850;28;20118;-91
2021/01/10 11:55:23;;;;;;;39.10;21.10;;;;;;;;;;5002990;28;20019;-89
2021/01/10 11:57:48;;;;;;;47.30;22.80;;;;;;;;;;5008302;28;20026;-90
2021/01/10 12:00:14;;;;;;;39.10;21.33;;;;;;;;;;5007243;28;20450;-90
2021/01/10 12:02:42;;;;;;;45.47;22.17;;;;;;;;;;5012599;28;20021;-87
2021/01/10 12:05:07;;;;;;;41.40;22.63;;;;;;;;;;5003589;28;20034;-87
2021/01/10 12:07:32;;;;;;;42.97;21.37;;;;;;;;;;4991960;28;20011;-91
2021/01/10 12:09:58;;;;;;;41.00;21.77;;;;;;;;;;5000219;28;20077;-91
2021/01/10 12:12:23;;;;;;;46.40;23.50;;;;;;;;;;4997639;28;20023;-91
2021/01/10 12:14:48;;;;;;;42.67;22.83;;;;;;;;;;4993956;28;20029;-91
2021/01/10 12:17:13;;;;;;;40.17;21.83;;;;;;;;;;4993085;28;20114;-92
2021/01/10 12:19:38;;;;;;;39.60;22.23;;;;;;;;;;5018353;28;20011;-93
2021/01/10 12:22:04;;;;;;;50.30;24.00;;;;;;;;;;5009592;28;20019;-91
2021/01/10 12:24:29;;;;;;;49.83;24.77;;;;;;;;;;5008938;28;20019;-91
2021/01/10 12:26:54;;;;;;;51.63;24.73;;;;;;;;;;5008398;28;20031;-91
2021/01/10 12:29:19;;;;;;;44.80;24.23;;;;;;;;;;5008930;28;20108;-91
2021/01/10 12:31:44;;;;;;;45.73;24.73;;;;;;;;;;5009197;28;20025;-91
2021/01/10 12:34:09;;;;;;;47.80;25.10;;;;;;;;;;4993901;28;20034;-91
2021/01/10 12:36:35;;;;;;;43.73;24.37;;;;;;;;;;4993584;28;20093;-91
2021/01/10 12:39:00;;;;;;;43.33;24.27;;;;;;;;;;5015229;28;20357;-91
2021/01/10 12:41:25;;;;;;;44.27;25.67;;;;;;;;;;4996387;28;20100;-90
2021/01/10 12:43:50;;;;;;;42.77;23.23;;;;;;;;;;5010160;28;20033;-90
2021/01/10 12:46:15;;;;;;;43.30;22.73;;;;;;;;;;4998621;28;20018;-90
2021/01/10 12:48:41;;;;;;;41.67;23.83;;;;;;;;;;4989807;28;20405;-91
2021/01/10 12:51:06;;;;;;;42.97;24.43;;;;;;;;;;5008637;28;20100;-91
2021/01/10 12:53:31;;;;;;;41.57;23.30;;;;;;;;;;5008570;28;20101;-91
2021/01/10 12:55:56;;;;;;;42.80;23.83;;;;;;;;;;4999360;28;20098;-91
2021/01/10 12:58:21;;;;;;;45.40;24.40;;;;;;;;;;4992024;28;20350;-91
2021/01/10 13:00:47;;;;;;;42.27;23.00;;;;;;;;;;5008741;28;20077;-91
2021/01/10 13:03:12;;;;;;;41.60;24.13;;;;;;;;;;5008324;28;20446;-91
2021/01/10 13:05:37;;;;;;;44.30;24.17;;;;;;;;;;4993134;28;20199;-91
2021/01/10 13:08:02;;;;;;;40.93;24.10;;;;;;;;;;4992897;28;20022;-91
2021/01/10 13:10:28;;;;;;;37.70;22.50;;;;;;;;;;4991870;28;20053;-91
2021/01/10 13:12:53;;;;;;;41.07;22.53;;;;;;;;;;4996186;28;20484;-90
2021/01/10 13:15:19;;;;;;;39.90;22.30;;;;;;;;;;5001140;28;20018;-91
2021/01/10 13:17:44;;;;;;;40.63;21.23;;;;;;;;;;5008311;28;20109;-91
2021/01/10 13:20:10;;;;;;;41.53;21.63;;;;;;;;;;5007925;28;20438;-91
2021/01/10 13:22:35;;;;;;;41.17;21.40;;;;;;;;;;5008039;28;20069;-91
2021/01/10 13:25:00;;;;;;;39.47;22.33;;;;;;;;;;4980727;28;20030;-90
2021/01/10 13:27:25;;;;;;;38.73;22.03;;;;;;;;;;5008069;28;20117;-91
2021/01/10 13:29:51;;;;;;;44.43;23.67;;;;;;;;;;5007823;28;20477;-91
2021/01/10 13:32:16;;;;;;;45.63;23.60;;;;;;;;;;5007426;28;20113;-91
2021/01/10 13:34:42;;;;;;;46.23;24.03;;;;;;;;;;5005371;28;20102;-92
2021/01/10 13:37:07;;;;;;;38.83;21.63;;;;;;;;;;4992892;28;20029;-91
2021/01/10 13:39:32;;;;;;;42.90;22.67;;;;;;;;;;4993024;28;20021;-91
2021/01/10 13:41:58;;;;;;;37.13;22.10;;;;;;;;;;5008306;28;20214;-91
2021/01/10 13:44:26;;;;;;;43.30;23.47;;;;;;;;;;5012260;28;20026;-91
2021/01/10 13:46:51;;;;;;;40.00;21.53;;;;;;;;;;5011983;28;20441;-91
2021/01/10 13:49:17;;;;;;;42.33;22.60;;;;;;;;;;4986801;28;20073;-92
2021/01/10 13:51:42;;;;;;;40.17;22.03;;;;;;;;;;4994202;28;20015;-91
2021/01/10 13:54:07;;;;;;;38.00;20.73;;;;;;;;;;4996419;28;20022;-91
2021/01/10 13:56:32;;;;;;;38.93;20.57;;;;;;;;;;4995217;28;20026;-91
2021/01/10 13:58:58;;;;;;;36.00;21.07;;;;;;;;;;4996571;28;20049;-91
2021/01/10 14:01:33;;;;;;;40.63;21.20;;;;;;;;;;5011754;28;20492;-91
2021/01/10 14:03:59;;;;;;;41.97;21.87;;;;;;;;;;5011295;28;20053;-91
2021/01/10 14:06:24;;;;;;;38.77;21.23;;;;;;;;;;5011401;28;20022;-91
2021/01/10 14:08:50;;;;;;;36.70;20.30;;;;;;;;;;5001027;28;20021;-91
2021/01/10 14:11:16;;;;;;;34.30;20.10;;;;;;;;;;4998678;28;20022;-91
2021/01/10 14:13:41;;;;;;;41.70;20.13;;;;;;;;;;5020163;28;20018;-91